createdAt,value
2018-02-24T00:00:56.935Z,21.52
2018-02-24T00:03:27.927Z,21.95
2018-02-24T00:05:58.909Z,22.85
2018-02-24T00:08:29.899Z,22.90
2018-02-24T00:11:00.906Z,19.92
2018-02-24T00:13:31.910Z,19.80
2018-02-24T00:16:02.930Z,20.55
2018-02-24T00:18:33.905Z,21.33
2018-02-24T00:21:04.930Z,19.70
2018-02-24T00:23:35.946Z,21.15
2018-02-24T00:26:06.921Z,20.60
2018-02-24T00:28:37.878Z,20.30
2018-02-24T00:31:08.884Z,17.43
2018-02-24T00:33:39.892Z,20.20
2018-02-24T00:36:10.898Z,21.10
2018-02-24T00:38:41.904Z,21.50
2018-02-24T00:41:12.889Z,21.00
2018-02-24T00:43:43.898Z,21.67
2018-02-24T00:46:14.872Z,22.17
2018-02-24T00:48:45.885Z,22.93
2018-02-24T00:51:16.937Z,21.30
2018-02-24T00:53:47.925Z,21.65
2018-02-24T00:56:18.953Z,22.42
2018-02-24T00:58:49.958Z,20.45
2018-02-24T01:01:20.991Z,22.80
2018-02-24T01:03:51.980Z,22.87
2018-02-24T01:06:22.988Z,22.75
2018-02-24T01:08:53.982Z,21.85
2018-02-24T01:11:24.990Z,22.77
2018-02-24T01:13:56.021Z,21.42
2018-02-24T01:16:27.019Z,21.17
2018-02-24T01:18:58.033Z,22.00
2018-02-24T01:21:29.013Z,21.55
2018-02-24T01:24:00.071Z,22.20
2018-02-24T01:26:31.045Z,21.37
2018-02-24T01:29:02.059Z,23.03
2018-02-24T01:31:33.091Z,19.83
2018-02-24T01:34:04.070Z,23.83
2018-02-24T01:36:35.103Z,23.07
2018-02-24T01:39:06.082Z,24.17
2018-02-24T01:41:37.082Z,23.57
2018-02-24T01:44:08.020Z,24.05
2018-02-24T01:46:39.025Z,22.53
2018-02-24T01:49:10.035Z,22.83
2018-02-24T01:51:41.032Z,25.10
2018-02-24T01:54:12.030Z,23.85
2018-02-24T01:56:43.024Z,23.45
2018-02-24T01:59:14.061Z,23.10
2018-02-24T02:01:45.056Z,22.23
2018-02-24T02:04:16.051Z,23.77
2018-02-24T02:06:47.051Z,24.00
2018-02-24T02:09:18.036Z,23.73
2018-02-24T02:11:49.054Z,23.80
2018-02-24T02:14:20.051Z,26.40
2018-02-24T02:16:51.061Z,24.12
2018-02-24T02:19:22.088Z,23.52
2018-02-24T02:21:53.150Z,25.17
2018-02-24T02:24:24.148Z,24.08
2018-02-24T02:26:55.165Z,25.07
2018-02-24T02:29:26.171Z,25.65
2018-02-24T02:31:57.181Z,25.67
2018-02-24T02:34:28.173Z,25.33
2018-02-24T02:36:59.168Z,23.90
2018-02-24T02:39:30.151Z,23.87
2018-02-24T02:42:01.166Z,26.65
2018-02-24T02:44:32.180Z,28.10
2018-02-24T02:47:03.173Z,25.15
2018-02-24T02:49:34.152Z,24.37
2018-02-24T02:52:05.123Z,26.30
2018-02-24T02:54:36.138Z,27.00
2018-02-24T02:57:07.112Z,25.83
2018-02-24T02:59:38.091Z,22.70
2018-02-24T03:02:09.123Z,24.42
2018-02-24T03:04:40.100Z,27.23
2018-02-24T03:07:11.142Z,28.20
2018-02-24T03:09:42.104Z,24.87
2018-02-24T03:12:13.122Z,29.70
2018-02-24T03:14:44.084Z,25.60
2018-02-24T03:17:15.169Z,26.17
2018-02-24T03:19:46.146Z,26.37
2018-02-24T03:22:17.117Z,26.83
2018-02-24T03:24:48.123Z,25.73
2018-02-24T03:27:19.134Z,27.10
2018-02-24T03:29:50.158Z,22.33
2018-02-24T03:32:21.129Z,26.70
2018-02-24T03:34:52.136Z,28.43
2018-02-24T03:37:23.153Z,27.77
2018-02-24T03:39:54.196Z,25.10
2018-02-24T03:42:25.203Z,26.55
2018-02-24T03:44:56.192Z,26.58
2018-02-24T03:47:27.223Z,26.37
2018-02-24T03:49:58.213Z,26.30
2018-02-24T03:52:29.228Z,25.55
2018-02-24T03:55:00.198Z,26.45
2018-02-24T03:57:31.198Z,24.97
2018-02-24T04:00:02.239Z,27.52
2018-02-24T04:02:33.240Z,27.08
2018-02-24T04:05:04.324Z,24.50
2018-02-24T04:07:35.348Z,27.80
2018-02-24T04:10:06.344Z,26.75
2018-02-24T04:12:37.337Z,28.30
2018-02-24T04:15:08.396Z,26.80
2018-02-24T04:17:39.402Z,24.35
2018-02-24T04:20:10.408Z,25.67
2018-02-24T04:22:41.386Z,26.92
2018-02-24T04:25:12.412Z,27.70
2018-02-24T04:27:43.433Z,26.10
2018-02-24T04:30:14.453Z,26.85
2018-02-24T04:32:45.493Z,26.23
2018-02-24T04:35:16.479Z,25.77
2018-02-24T04:37:47.509Z,28.20
2018-02-24T04:40:18.549Z,28.08
2018-02-24T04:42:49.527Z,26.25
2018-02-24T04:45:20.529Z,26.00
2018-02-24T04:47:51.533Z,23.38
2018-02-24T04:50:22.545Z,25.73
2018-02-24T04:52:53.500Z,23.52
2018-02-24T04:55:24.547Z,23.40
2018-02-24T04:57:55.618Z,26.30
2018-02-24T05:00:26.600Z,26.00
2018-02-24T05:02:57.640Z,24.80
2018-02-24T05:05:28.608Z,27.70
2018-02-24T05:07:59.609Z,24.10
2018-02-24T05:10:30.574Z,22.75
2018-02-24T05:13:01.568Z,26.97
2018-02-24T05:15:32.556Z,23.38
2018-02-24T05:18:03.536Z,23.25
2018-02-24T05:20:34.522Z,22.98
2018-02-24T05:23:05.538Z,23.45
2018-02-24T05:25:36.549Z,21.62
2018-02-24T05:28:07.652Z,25.42
2018-02-24T05:30:38.635Z,22.27
2018-02-24T05:33:09.607Z,22.90
2018-02-24T05:35:40.610Z,25.13
2018-02-24T05:38:11.595Z,24.00
2018-02-24T05:40:42.589Z,23.62
2018-02-24T05:43:13.603Z,25.37
2018-02-24T05:45:44.548Z,22.55
2018-02-24T05:48:15.573Z,24.73
2018-02-24T05:50:46.615Z,23.98
2018-02-24T05:53:17.584Z,22.83
2018-02-24T05:55:48.560Z,26.47
2018-02-24T05:58:19.588Z,23.92
2018-02-24T06:00:50.565Z,23.75
2018-02-24T06:03:21.602Z,23.57
2018-02-24T06:05:52.642Z,23.02
2018-02-24T06:08:23.620Z,24.42
2018-02-24T06:10:54.612Z,23.65
2018-02-24T06:13:25.659Z,23.12
2018-02-24T06:15:56.622Z,20.90
2018-02-24T06:18:27.619Z,25.43
2018-02-24T06:20:58.613Z,23.58
2018-02-24T06:23:29.580Z,24.10
2018-02-24T06:26:00.596Z,23.43
2018-02-24T06:28:31.589Z,23.20
2018-02-24T06:31:02.590Z,22.85
2018-02-24T06:33:33.590Z,20.42
2018-02-24T06:36:04.629Z,22.60
2018-02-24T06:38:35.664Z,22.00
2018-02-24T06:41:06.673Z,22.02
2018-02-24T06:43:37.694Z,20.23
2018-02-24T06:46:08.693Z,21.20
2018-02-24T06:48:39.689Z,20.98
2018-02-24T06:51:10.739Z,20.55
2018-02-24T06:53:41.743Z,23.67
2018-02-24T06:56:12.703Z,22.60
2018-02-24T06:58:43.685Z,26.10
2018-02-24T07:01:14.718Z,23.45
2018-02-24T07:03:45.703Z,22.58
2018-02-24T07:06:16.760Z,22.17
2018-02-24T07:08:47.768Z,21.45
2018-02-24T07:11:19.277Z,19.62
2018-02-24T07:13:50.302Z,20.58
2018-02-24T07:16:21.305Z,21.05
2018-02-24T07:18:52.293Z,19.98
2018-02-24T07:21:23.291Z,21.77
2018-02-24T07:23:54.301Z,22.87
2018-02-24T07:26:25.251Z,22.42
2018-02-24T07:28:56.273Z,22.80
2018-02-24T07:31:27.305Z,21.52
2018-02-24T07:33:58.324Z,20.98
2018-02-24T07:36:29.323Z,21.02
2018-02-24T07:39:00.334Z,22.05
2018-02-24T07:41:31.319Z,19.42
2018-02-24T07:44:02.378Z,20.00
2018-02-24T07:46:33.358Z,21.02
2018-02-24T07:49:04.363Z,22.48
2018-02-24T07:51:35.363Z,21.15
2018-02-24T07:54:06.375Z,21.48
2018-02-24T07:56:37.343Z,22.50
2018-02-24T07:59:08.381Z,21.07
2018-02-24T08:01:39.352Z,21.10
2018-02-24T08:04:10.374Z,22.17
2018-02-24T08:06:41.390Z,21.67
2018-02-24T08:09:13.289Z,20.15
2018-02-24T08:11:44.307Z,21.58
2018-02-24T08:14:15.310Z,20.55
2018-02-24T08:16:46.322Z,22.15
2018-02-24T08:19:17.359Z,21.48
2018-02-24T08:21:48.403Z,20.20
2018-02-24T08:24:19.403Z,21.27
2018-02-24T08:26:50.398Z,20.90
2018-02-24T08:29:21.918Z,19.40
2018-02-24T08:31:52.984Z,20.80
2018-02-24T08:34:23.968Z,22.57
2018-02-24T08:36:54.932Z,24.30
2018-02-24T08:39:25.919Z,23.50
2018-02-24T08:41:56.904Z,23.50
2018-02-24T08:44:27.905Z,24.60
2018-02-24T08:46:58.885Z,22.73
2018-02-24T08:49:29.875Z,24.40
2018-02-24T08:52:00.883Z,25.33
2018-02-24T08:54:31.904Z,23.60
2018-02-24T08:57:02.938Z,23.80
2018-02-24T08:59:33.922Z,24.17
2018-02-24T09:02:04.910Z,25.43
2018-02-24T09:04:35.921Z,26.00
2018-02-24T09:07:06.926Z,26.00
2018-02-24T09:09:37.917Z,25.03
2018-02-24T09:12:08.965Z,25.37
2018-02-24T09:14:39.947Z,24.40
2018-02-24T09:17:10.959Z,24.90
2018-02-24T09:19:41.923Z,24.63
2018-02-24T09:22:12.970Z,26.13
2018-02-24T09:24:43.953Z,25.60
2018-02-24T09:27:14.974Z,25.67
2018-02-24T09:29:45.929Z,24.20
2018-02-24T09:32:16.958Z,23.97
2018-02-24T09:34:47.929Z,23.77
2018-02-24T09:37:18.943Z,22.03
2018-02-24T09:39:49.961Z,24.77
2018-02-24T09:42:20.955Z,24.47
2018-02-24T09:44:51.938Z,24.37
2018-02-24T09:47:22.996Z,25.63
2018-02-24T09:49:54.018Z,24.50
2018-02-24T09:52:24.992Z,24.00
2018-02-24T09:54:55.951Z,23.97
2018-02-24T09:57:26.925Z,23.97
2018-02-24T09:59:57.910Z,24.10
2018-02-24T10:02:28.920Z,26.95
2018-02-24T10:04:59.892Z,23.43
2018-02-24T10:07:30.924Z,22.87
2018-02-24T10:10:01.930Z,21.27
2018-02-24T10:12:32.963Z,22.57
2018-02-24T10:15:03.987Z,23.13
2018-02-24T10:17:34.943Z,22.93
2018-02-24T10:20:05.924Z,22.33
2018-02-24T10:22:36.917Z,23.10
2018-02-24T10:25:07.936Z,22.70
2018-02-24T10:27:38.931Z,22.47
2018-02-24T10:30:09.956Z,22.03
2018-02-24T10:32:40.946Z,21.80
2018-02-24T10:35:11.922Z,22.60
2018-02-24T10:37:42.932Z,21.60
2018-02-24T10:40:13.972Z,24.03
2018-02-24T10:42:44.936Z,21.13
2018-02-24T10:45:15.912Z,21.03
2018-02-24T10:47:46.911Z,21.80
2018-02-24T10:50:17.881Z,22.80
2018-02-24T10:52:48.914Z,21.10
2018-02-24T10:55:19.865Z,21.50
2018-02-24T10:57:50.947Z,21.20
2018-02-24T11:00:21.939Z,21.67
2018-02-24T11:02:53.004Z,21.83
2018-02-24T11:05:24.006Z,21.17
2018-02-24T11:07:54.998Z,19.63
2018-02-24T11:10:26.021Z,21.47
2018-02-24T11:12:57.023Z,19.63
2018-02-24T11:15:28.043Z,20.10
2018-02-24T11:17:58.996Z,19.10
2018-02-24T11:20:30.005Z,20.03
2018-02-24T11:23:01.018Z,19.10
2018-02-24T11:25:32.744Z,17.87
2018-02-24T11:28:03.744Z,18.30
2018-02-24T11:30:34.720Z,18.47
2018-02-24T11:33:05.700Z,18.17
2018-02-24T11:35:36.686Z,16.73
2018-02-24T11:38:07.698Z,17.37
2018-02-24T11:40:38.676Z,15.47
2018-02-24T11:43:09.677Z,15.73
2018-02-24T11:45:40.676Z,14.57
2018-02-24T11:48:11.731Z,12.90
2018-02-24T11:50:42.751Z,13.90
2018-02-24T11:53:13.758Z,13.80
2018-02-24T11:55:44.766Z,15.57
2018-02-24T11:58:15.842Z,14.17
2018-02-24T12:00:46.856Z,14.43
2018-02-24T12:03:17.867Z,14.53
2018-02-24T12:05:48.885Z,14.10
2018-02-24T12:08:19.847Z,15.13
2018-02-24T12:10:50.825Z,13.77
2018-02-24T12:13:21.800Z,13.87
2018-02-24T12:15:52.850Z,13.40
2018-02-24T12:18:23.849Z,13.70
2018-02-24T12:20:54.837Z,13.23
2018-02-24T12:23:25.844Z,12.57
2018-02-24T12:25:56.824Z,12.17
2018-02-24T12:28:27.835Z,13.77
2018-02-24T12:30:58.894Z,11.37
2018-02-24T12:33:29.916Z,12.07
2018-02-24T12:36:00.923Z,11.10
2018-02-24T12:38:31.938Z,11.07
2018-02-24T12:41:02.960Z,10.30
2018-02-24T12:43:34.005Z,10.10
2018-02-24T12:46:04.987Z,14.13
2018-02-24T12:48:35.983Z,11.20
2018-02-24T12:51:07.001Z,11.33
2018-02-24T12:53:38.019Z,12.30
2018-02-24T12:56:09.015Z,11.90
2018-02-24T12:58:40.087Z,11.30
2018-02-24T13:01:11.160Z,14.40
2018-02-24T13:03:42.173Z,11.57
2018-02-24T13:06:13.203Z,11.07
2018-02-24T13:08:44.180Z,11.17
2018-02-24T13:11:15.184Z,9.40
2018-02-24T13:13:46.189Z,11.10
2018-02-24T13:16:17.176Z,10.93
2018-02-24T13:18:48.164Z,10.20
2018-02-24T13:21:19.213Z,10.17
2018-02-24T13:23:50.193Z,11.43
2018-02-24T13:26:21.217Z,10.50
2018-02-24T13:28:52.189Z,11.63
2018-02-24T13:31:23.199Z,10.50
2018-02-24T13:33:54.239Z,12.50
2018-02-24T13:36:25.249Z,11.50
2018-02-24T13:38:56.270Z,11.37
2018-02-24T13:41:27.261Z,11.53
2018-02-24T13:43:58.284Z,10.63
2018-02-24T13:46:29.262Z,9.73
2018-02-24T13:49:00.256Z,10.80
2018-02-24T13:51:31.303Z,12.43
2018-02-24T13:54:02.334Z,10.63
2018-02-24T13:56:33.340Z,12.93
2018-02-24T13:59:04.337Z,12.07
2018-02-24T14:01:35.339Z,13.13
2018-02-24T14:04:06.387Z,11.20
2018-02-24T14:06:37.363Z,11.83
2018-02-24T14:09:08.502Z,9.30
2018-02-24T14:11:39.488Z,10.30
2018-02-24T14:14:10.572Z,11.73
2018-02-24T14:16:41.600Z,10.93
2018-02-24T14:19:12.618Z,10.63
2018-02-24T14:21:43.638Z,10.20
2018-02-24T14:24:14.622Z,10.00
2018-02-24T14:26:45.669Z,9.00
2018-02-24T14:29:16.627Z,9.73
2018-02-24T14:31:47.677Z,9.90
2018-02-24T14:34:18.649Z,10.57
2018-02-24T14:36:49.716Z,9.40
2018-02-24T14:39:20.726Z,9.90
2018-02-24T14:41:51.726Z,10.07
2018-02-24T14:44:22.755Z,10.27
2018-02-24T14:46:53.769Z,10.17
2018-02-24T14:49:24.748Z,9.63
2018-02-24T14:51:55.718Z,9.20
2018-02-24T14:54:26.710Z,10.50
2018-02-24T14:56:57.804Z,9.47
2018-02-24T14:59:28.886Z,9.70
2018-02-24T15:01:59.915Z,8.77
2018-02-24T15:04:30.912Z,9.98
2018-02-24T15:07:01.903Z,10.47
2018-02-24T15:09:32.958Z,10.93
2018-02-24T15:15:00.438Z,10.00
2018-02-24T15:17:31.447Z,9.60
2018-02-24T15:20:02.522Z,9.60
2018-02-24T15:22:33.527Z,8.70
2018-02-24T15:25:04.582Z,8.37
2018-02-24T15:27:35.565Z,8.75
2018-02-24T15:30:06.612Z,7.67
2018-02-24T15:32:37.675Z,9.23
2018-02-24T15:35:08.721Z,7.60
2018-02-24T15:37:39.766Z,7.03
2018-02-24T15:40:10.729Z,7.68
2018-02-24T15:42:41.754Z,8.33
2018-02-24T15:45:12.810Z,7.50
2018-02-24T15:47:43.820Z,7.40
2018-02-24T15:50:14.843Z,6.82
2018-02-24T15:52:45.884Z,8.23
2018-02-24T15:55:16.895Z,7.25
2018-02-24T15:57:47.906Z,7.30
2018-02-24T16:00:18.907Z,6.68
2018-02-24T16:02:49.925Z,8.07
2018-02-24T16:05:20.912Z,7.20
2018-02-24T16:07:51.935Z,7.80
2018-02-24T16:10:23.007Z,7.53
2018-02-24T16:12:54.082Z,6.82
2018-02-24T16:15:25.049Z,7.43
2018-02-24T16:18:03.209Z,8.03
2018-02-24T16:20:34.209Z,6.78
2018-02-24T16:23:05.217Z,7.30
2018-02-24T16:25:36.188Z,6.35
2018-02-24T16:28:07.197Z,7.37
2018-02-24T16:30:38.214Z,6.72
2018-02-24T16:33:10.047Z,7.30
2018-02-24T16:35:41.038Z,8.90
2018-02-24T16:38:12.016Z,7.13
2018-02-24T16:40:42.987Z,7.37
2018-02-24T16:43:13.971Z,6.97
2018-02-24T16:45:44.939Z,7.97
2018-02-24T16:48:16.975Z,7.73
2018-02-24T16:50:47.954Z,6.50
2018-02-24T16:53:18.969Z,6.60
2018-02-24T16:55:49.939Z,6.95
2018-02-24T16:58:20.976Z,6.60
2018-02-24T17:00:51.950Z,6.50
2018-02-24T17:03:22.940Z,7.73
2018-02-24T17:05:53.953Z,7.22
2018-02-24T17:08:24.982Z,6.10
2018-02-24T17:10:55.976Z,7.28
2018-02-24T17:13:26.936Z,7.93
2018-02-24T17:15:57.995Z,6.43
2018-02-24T17:18:29.005Z,6.30
2018-02-24T17:21:00.050Z,6.78
2018-02-24T17:23:31.036Z,6.30
2018-02-24T17:26:02.041Z,6.83
2018-02-24T17:31:29.096Z,5.85
2018-02-24T17:34:00.111Z,6.63
2018-02-24T17:36:31.142Z,6.53
2018-02-24T17:39:02.199Z,6.60
2018-02-24T17:41:33.148Z,7.07
2018-02-24T17:44:04.139Z,7.17
2018-02-24T17:46:35.139Z,6.10
2018-02-24T17:49:06.099Z,6.65
2018-02-24T17:51:37.125Z,6.80
2018-02-24T17:54:08.190Z,6.37
2018-02-24T17:56:39.214Z,6.53
2018-02-24T17:59:10.224Z,7.22
2018-02-24T18:01:48.454Z,6.87
2018-02-24T18:04:19.503Z,5.85
2018-02-24T18:06:50.550Z,7.15
2018-02-24T18:09:21.579Z,7.22
2018-02-24T18:11:52.641Z,5.82
2018-02-24T18:14:23.613Z,6.47
2018-02-24T18:16:54.604Z,6.10
2018-02-24T18:19:25.609Z,8.02
2018-02-24T18:21:56.588Z,7.15
2018-02-24T18:24:27.660Z,7.37
2018-02-24T18:26:58.722Z,6.95
2018-02-24T18:29:29.675Z,7.82
2018-02-24T18:32:00.644Z,7.63
2018-02-24T18:34:31.631Z,7.03
2018-02-24T18:37:02.716Z,6.70
2018-02-24T18:39:33.700Z,7.32
2018-02-24T18:42:04.773Z,7.13
2018-02-24T18:44:35.784Z,7.45
2018-02-24T18:47:06.793Z,7.30
2018-02-24T18:49:37.778Z,7.87
2018-02-24T18:52:08.832Z,7.67
2018-02-24T18:54:39.841Z,6.87
2018-02-24T18:57:10.824Z,5.85
2018-02-24T18:59:41.783Z,7.07
2018-02-24T19:02:12.837Z,6.87
2018-02-24T19:04:43.902Z,6.43
2018-02-24T19:07:14.940Z,6.97
2018-02-24T19:09:45.914Z,7.18
2018-02-24T19:12:16.893Z,6.63
2018-02-24T19:14:47.905Z,7.20
2018-02-24T19:17:18.884Z,6.90
2018-02-24T19:19:49.876Z,6.40
2018-02-24T19:22:20.950Z,5.57
2018-02-24T19:24:51.909Z,6.95
2018-02-24T19:27:22.944Z,6.07
2018-02-24T19:29:53.974Z,5.90
2018-02-24T19:32:25.070Z,6.10
2018-02-24T19:34:56.070Z,5.65
2018-02-24T19:37:27.070Z,5.65
2018-02-24T19:39:58.104Z,6.57
2018-02-24T19:42:29.090Z,6.05
2018-02-24T19:45:00.192Z,6.20
2018-02-24T19:47:31.212Z,5.22
2018-02-24T19:50:02.254Z,5.95
2018-02-24T19:52:33.208Z,6.78
2018-02-24T19:55:04.277Z,6.20
2018-02-24T19:57:35.258Z,5.95
2018-02-24T20:00:06.351Z,6.37
2018-02-24T20:02:37.301Z,6.35
2018-02-24T20:05:08.315Z,5.73
2018-02-24T20:07:39.284Z,5.18
2018-02-24T20:10:10.348Z,5.20
2018-02-24T20:12:41.403Z,6.07
2018-02-24T20:15:12.431Z,5.50
2018-02-24T20:17:43.416Z,6.75
2018-02-24T20:20:14.456Z,6.20
2018-02-24T20:22:45.421Z,5.65
2018-02-24T20:25:16.411Z,6.07
2018-02-24T20:27:47.424Z,5.47
2018-02-24T20:30:18.427Z,6.05
2018-02-24T20:32:49.454Z,6.05
2018-02-24T20:35:20.467Z,4.93
2018-02-24T20:37:51.561Z,6.70
2018-02-24T20:40:22.546Z,4.65
2018-02-24T20:42:53.537Z,5.68
2018-02-24T20:45:24.549Z,5.57
2018-02-24T20:47:55.539Z,6.10
2018-02-24T20:50:26.527Z,5.30
2018-02-24T20:52:57.562Z,5.57
2018-02-24T20:55:28.640Z,5.50
2018-02-24T20:57:59.640Z,4.72
2018-02-24T21:00:30.688Z,5.70
2018-02-24T21:03:01.801Z,5.82
2018-02-24T21:05:32.792Z,5.53
2018-02-24T21:08:03.791Z,4.70
2018-02-24T21:10:34.771Z,5.70
2018-02-24T21:13:05.797Z,5.43
2018-02-24T21:15:36.823Z,5.75
2018-02-24T21:18:07.764Z,6.30
2018-02-24T21:20:38.789Z,5.17
2018-02-24T21:23:09.792Z,5.37
2018-02-24T21:25:41.200Z,5.03
2018-02-24T21:28:12.268Z,5.78
2018-02-24T21:30:43.248Z,5.30
2018-02-24T21:33:14.234Z,5.50
2018-02-24T21:35:45.253Z,5.20
2018-02-24T21:38:16.260Z,6.05
2018-02-24T21:40:47.269Z,6.32
2018-02-24T21:43:18.245Z,5.95
2018-02-24T21:45:49.280Z,6.03
2018-02-24T21:48:20.267Z,6.25
2018-02-24T21:50:51.293Z,6.18
2018-02-24T21:53:22.356Z,5.37
2018-02-24T21:55:53.346Z,5.87
2018-02-24T21:58:24.360Z,5.43
2018-02-24T22:00:55.377Z,6.53
2018-02-24T22:03:26.422Z,5.43
2018-02-24T22:05:57.392Z,6.68
2018-02-24T22:08:35.277Z,6.27
2018-02-24T22:11:06.276Z,5.53
2018-02-24T22:13:37.289Z,5.60
2018-02-24T22:16:08.288Z,5.87
2018-02-24T22:18:39.332Z,6.72
2018-02-24T22:21:10.360Z,7.10
2018-02-24T22:23:41.345Z,6.28
2018-02-24T22:26:12.356Z,5.43
2018-02-24T22:28:43.396Z,6.30
2018-02-24T22:31:14.398Z,5.80
2018-02-24T22:33:45.376Z,6.18
2018-02-24T22:36:16.443Z,5.70
2018-02-24T22:38:47.460Z,6.20
2018-02-24T22:41:18.432Z,5.70
2018-02-24T22:43:49.448Z,6.33
2018-02-24T22:46:20.442Z,6.43
2018-02-24T22:48:57.530Z,5.80
2018-02-24T22:51:28.527Z,5.80
2018-02-24T22:53:59.516Z,5.97
2018-02-24T22:56:30.487Z,7.07
2018-02-24T22:59:01.507Z,6.30
2018-02-24T23:01:32.534Z,6.43
2018-02-24T23:04:03.568Z,5.70
2018-02-24T23:06:34.566Z,5.12
2018-02-24T23:09:05.547Z,6.22
2018-02-24T23:11:36.536Z,5.95
2018-02-24T23:14:07.518Z,6.20
2018-02-24T23:16:38.512Z,6.57
2018-02-24T23:19:09.524Z,6.60
2018-02-24T23:21:40.504Z,6.32
2018-02-24T23:24:11.512Z,6.40
2018-02-24T23:26:42.504Z,6.53
2018-02-24T23:29:13.538Z,5.60
2018-02-24T23:31:44.520Z,5.85
2018-02-24T23:34:15.582Z,6.62
2018-02-24T23:36:46.566Z,6.07
2018-02-24T23:39:17.587Z,6.20
2018-02-24T23:41:48.558Z,6.18
2018-02-24T23:44:19.567Z,5.83
2018-02-24T23:46:50.539Z,6.37
2018-02-24T23:49:21.540Z,6.20
2018-02-24T23:51:52.576Z,6.35
2018-02-24T23:54:23.550Z,6.90
2018-02-24T23:56:54.538Z,5.57
2018-02-24T23:59:25.492Z,7.07
